<?xml version="1.0" encoding="UTF-8" standalone="no" ?>
<gpx xmlns="http://www.topografix.com/GPX/1/1" xmlns:xsi="http://www.w3.org/2001/XMLSchema-instance" xsi:schemaLocation="http://www.topografix.com/GPX/1/1 http://www.topografix.com/GPX/1/1/gpx.xsd" version="1.1" creator="VisuGPX - https://www.visugpx.com">
  <metadata>
    <name>Mont du Lyonnais par Saint bel</name>
    <desc><![CDATA[Au départ de Lozanne, une montée dans les monts du Lyonnais par Saint Bel et Saint Pierre la Palud]]></desc>
  </metadata>
  <trk>
    <name><![CDATA[montsLyonnais]]></name>
    <trkseg>
      <trkpt lat="45.85616" lon="4.68037">
        <ele>200.091675</ele>
        <time>2009-10-11T08:47:25Z</time>
      </trkpt>
      <trkpt lat="45.85631" lon="4.68063">
        <ele>200.091675</ele>
        <time>2009-10-11T08:47:44Z</time>
      </trkpt>
      <trkpt lat="45.85633" lon="4.68041">
        <ele>200.091675</ele>
        <time>2009-10-11T08:47:57Z</time>
      </trkpt>
      <trkpt lat="45.85648" lon="4.6806">
        <ele>201.052856</ele>
        <time>2009-10-11T08:48:15Z</time>
      </trkpt>
      <trkpt lat="45.85642" lon="4.68052">
        <ele>200.091675</ele>
        <time>2009-10-11T08:48:44Z</time>
      </trkpt>
      <trkpt lat="45.85635" lon="4.68039">
        <ele>200.572266</ele>
        <time>2009-10-11T08:49:03Z</time>
      </trkpt>
      <trkpt lat="45.85631" lon="4.6806">
        <ele>200.572266</ele>
        <time>2009-10-11T08:49:14Z</time>
      </trkpt>
      <trkpt lat="45.85657" lon="4.68112">
        <ele>200.091675</ele>
        <time>2009-10-11T08:50:06Z</time>
      </trkpt>
      <trkpt lat="45.85655" lon="4.68101">
        <ele>204.898071</ele>
        <time>2009-10-11T09:01:07Z</time>
      </trkpt>
      <trkpt lat="45.8558" lon="4.67919">
        <ele>205.859497</ele>
        <time>2009-10-11T09:03:48Z</time>
      </trkpt>
      <trkpt lat="45.85539" lon="4.67953">
        <ele>206.820679</ele>
        <time>2009-10-11T09:04:02Z</time>
      </trkpt>
      <trkpt lat="45.85483" lon="4.67788">
        <ele>204.898071</ele>
        <time>2009-10-11T09:04:36Z</time>
      </trkpt>
      <trkpt lat="45.8555" lon="4.67655">
        <ele>207.301392</ele>
        <time>2009-10-11T09:05:01Z</time>
      </trkpt>
      <trkpt lat="45.85625" lon="4.67571">
        <ele>209.224121</ele>
        <time>2009-10-11T09:05:23Z</time>
      </trkpt>
      <trkpt lat="45.85696" lon="4.675">
        <ele>210.185425</ele>
        <time>2009-10-11T09:05:44Z</time>
      </trkpt>
      <trkpt lat="45.85777" lon="4.67355">
        <ele>206.340088</ele>
        <time>2009-10-11T09:06:13Z</time>
      </trkpt>
      <trkpt lat="45.85771" lon="4.67322">
        <ele>203.93689</ele>
        <time>2009-10-11T09:06:24Z</time>
      </trkpt>
      <trkpt lat="45.85719" lon="4.67273">
        <ele>205.378784</ele>
        <time>2009-10-11T09:06:37Z</time>
      </trkpt>
      <trkpt lat="45.8565" lon="4.67239">
        <ele>208.262817</ele>
        <time>2009-10-11T09:06:56Z</time>
      </trkpt>
      <trkpt lat="45.85595" lon="4.67174">
        <ele>208.262817</ele>
        <time>2009-10-11T09:07:17Z</time>
      </trkpt>
      <trkpt lat="45.85532" lon="4.66977">
        <ele>211.146729</ele>
        <time>2009-10-11T09:07:55Z</time>
      </trkpt>
      <trkpt lat="45.85496" lon="4.66563">
        <ele>209.224121</ele>
        <time>2009-10-11T09:09:02Z</time>
      </trkpt>
      <trkpt lat="45.85466" lon="4.66505">
        <ele>214.51123</ele>
        <time>2009-10-11T09:09:25Z</time>
      </trkpt>
      <trkpt lat="45.85496" lon="4.66355">
        <ele>228.931152</ele>
        <time>2009-10-11T09:10:24Z</time>
      </trkpt>
      <trkpt lat="45.8552" lon="4.66104">
        <ele>229.411743</ele>
        <time>2009-10-11T09:11:17Z</time>
      </trkpt>
      <trkpt lat="45.85477" lon="4.65855">
        <ele>226.527832</ele>
        <time>2009-10-11T09:12:04Z</time>
      </trkpt>
      <trkpt lat="45.85509" lon="4.65681">
        <ele>229.411743</ele>
        <time>2009-10-11T09:12:42Z</time>
      </trkpt>
      <trkpt lat="45.85492" lon="4.65612">
        <ele>228.931152</ele>
        <time>2009-10-11T09:12:57Z</time>
      </trkpt>
      <trkpt lat="45.85466" lon="4.65582">
        <ele>229.892334</ele>
        <time>2009-10-11T09:13:11Z</time>
      </trkpt>
      <trkpt lat="45.85337" lon="4.6555">
        <ele>239.505493</ele>
        <time>2009-10-11T09:14:04Z</time>
      </trkpt>
      <trkpt lat="45.85204" lon="4.65571">
        <ele>253.444702</ele>
        <time>2009-10-11T09:15:16Z</time>
      </trkpt>
      <trkpt lat="45.85125" lon="4.65621">
        <ele>262.096558</ele>
        <time>2009-10-11T09:16:00Z</time>
      </trkpt>
      <trkpt lat="45.84949" lon="4.65683">
        <ele>273.151855</ele>
        <time>2009-10-11T09:17:38Z</time>
      </trkpt>
      <trkpt lat="45.84925" lon="4.65683">
        <ele>276.035645</ele>
        <time>2009-10-11T09:17:50Z</time>
      </trkpt>
      <trkpt lat="45.84807" lon="4.65674">
        <ele>280.842407</ele>
        <time>2009-10-11T09:18:46Z</time>
      </trkpt>
      <trkpt lat="45.84715" lon="4.65692">
        <ele>287.09082</ele>
        <time>2009-10-11T09:19:34Z</time>
      </trkpt>
      <trkpt lat="45.84586" lon="4.65968">
        <ele>287.09082</ele>
        <time>2009-10-11T09:20:51Z</time>
      </trkpt>
      <trkpt lat="45.84475" lon="4.66104">
        <ele>288.052246</ele>
        <time>2009-10-11T09:21:29Z</time>
      </trkpt>
      <trkpt lat="45.84404" lon="4.66224">
        <ele>285.168213</ele>
        <time>2009-10-11T09:21:54Z</time>
      </trkpt>
      <trkpt lat="45.84374" lon="4.66234">
        <ele>287.571411</ele>
        <time>2009-10-11T09:22:03Z</time>
      </trkpt>
      <trkpt lat="45.84335" lon="4.66039">
        <ele>298.146118</ele>
        <time>2009-10-11T09:22:52Z</time>
      </trkpt>
      <trkpt lat="45.84299" lon="4.65996">
        <ele>301.029907</ele>
        <time>2009-10-11T09:23:09Z</time>
      </trkpt>
      <trkpt lat="45.84185" lon="4.65947">
        <ele>305.355957</ele>
        <time>2009-10-11T09:23:47Z</time>
      </trkpt>
      <trkpt lat="45.84131" lon="4.65889">
        <ele>307.759277</ele>
        <time>2009-10-11T09:24:07Z</time>
      </trkpt>
      <trkpt lat="45.84116" lon="4.65818">
        <ele>309.201172</ele>
        <time>2009-10-11T09:24:23Z</time>
      </trkpt>
      <trkpt lat="45.84133" lon="4.65734">
        <ele>311.123779</ele>
        <time>2009-10-11T09:24:41Z</time>
      </trkpt>
      <trkpt lat="45.84159" lon="4.65647">
        <ele>312.565796</ele>
        <time>2009-10-11T09:25:00Z</time>
      </trkpt>
      <trkpt lat="45.84161" lon="4.65591">
        <ele>315.449829</ele>
        <time>2009-10-11T09:25:12Z</time>
      </trkpt>
      <trkpt lat="45.84084" lon="4.65458">
        <ele>323.620972</ele>
        <time>2009-10-11T09:25:55Z</time>
      </trkpt>
      <trkpt lat="45.84082" lon="4.65415">
        <ele>326.504883</ele>
        <time>2009-10-11T09:26:10Z</time>
      </trkpt>
      <trkpt lat="45.84069" lon="4.65391">
        <ele>326.504883</ele>
        <time>2009-10-11T09:26:20Z</time>
      </trkpt>
      <trkpt lat="45.84073" lon="4.65378">
        <ele>327.946777</ele>
        <time>2009-10-11T09:26:24Z</time>
      </trkpt>
      <trkpt lat="45.84144" lon="4.65331">
        <ele>329.388916</ele>
        <time>2009-10-11T09:26:55Z</time>
      </trkpt>
      <trkpt lat="45.84138" lon="4.65303">
        <ele>328.427612</ele>
        <time>2009-10-11T09:27:03Z</time>
      </trkpt>
      <trkpt lat="45.84065" lon="4.6525">
        <ele>333.714722</ele>
        <time>2009-10-11T09:27:31Z</time>
      </trkpt>
      <trkpt lat="45.84015" lon="4.6526">
        <ele>336.598877</ele>
        <time>2009-10-11T09:27:49Z</time>
      </trkpt>
      <trkpt lat="45.83934" lon="4.65275">
        <ele>337.079468</ele>
        <time>2009-10-11T09:28:15Z</time>
      </trkpt>
      <trkpt lat="45.83932" lon="4.65177">
        <ele>344.289429</ele>
        <time>2009-10-11T09:28:44Z</time>
      </trkpt>
      <trkpt lat="45.83917" lon="4.65132">
        <ele>346.212036</ele>
        <time>2009-10-11T09:29:06Z</time>
      </trkpt>
      <trkpt lat="45.83706" lon="4.65168">
        <ele>352.460571</ele>
        <time>2009-10-11T09:30:17Z</time>
      </trkpt>
      <trkpt lat="45.83732" lon="4.64902">
        <ele>370.725586</ele>
        <time>2009-10-11T09:31:52Z</time>
      </trkpt>
      <trkpt lat="45.83807" lon="4.64816">
        <ele>377.935425</ele>
        <time>2009-10-11T09:32:36Z</time>
      </trkpt>
      <trkpt lat="45.83936" lon="4.64702">
        <ele>373.609497</ele>
        <time>2009-10-11T09:33:19Z</time>
      </trkpt>
      <trkpt lat="45.83854" lon="4.64556">
        <ele>379.377441</ele>
        <time>2009-10-11T09:34:16Z</time>
      </trkpt>
      <trkpt lat="45.83831" lon="4.64486">
        <ele>378.896851</ele>
        <time>2009-10-11T09:34:34Z</time>
      </trkpt>
      <trkpt lat="45.8376" lon="4.64327">
        <ele>374.570801</ele>
        <time>2009-10-11T09:35:08Z</time>
      </trkpt>
      <trkpt lat="45.837" lon="4.6425">
        <ele>371.206299</ele>
        <time>2009-10-11T09:35:21Z</time>
      </trkpt>
      <trkpt lat="45.83593" lon="4.64102">
        <ele>360.151123</ele>
        <time>2009-10-11T09:35:39Z</time>
      </trkpt>
      <trkpt lat="45.83481" lon="4.63971">
        <ele>357.26709</ele>
        <time>2009-10-11T09:35:57Z</time>
      </trkpt>
      <trkpt lat="45.83438" lon="4.63921">
        <ele>360.151123</ele>
        <time>2009-10-11T09:36:07Z</time>
      </trkpt>
      <trkpt lat="45.83397" lon="4.63908">
        <ele>362.554321</ele>
        <time>2009-10-11T09:36:20Z</time>
      </trkpt>
      <trkpt lat="45.8323" lon="4.63853">
        <ele>375.051514</ele>
        <time>2009-10-11T09:37:28Z</time>
      </trkpt>
      <trkpt lat="45.83159" lon="4.63805">
        <ele>381.78064</ele>
        <time>2009-10-11T09:37:59Z</time>
      </trkpt>
      <trkpt lat="45.82865" lon="4.63608">
        <ele>390.432617</ele>
        <time>2009-10-11T09:39:37Z</time>
      </trkpt>
      <trkpt lat="45.82651" lon="4.63557">
        <ele>378.896851</ele>
        <time>2009-10-11T09:40:15Z</time>
      </trkpt>
      <trkpt lat="45.82565" lon="4.63496">
        <ele>373.609497</ele>
        <time>2009-10-11T09:40:29Z</time>
      </trkpt>
      <trkpt lat="45.82282" lon="4.63318">
        <ele>377.454834</ele>
        <time>2009-10-11T09:41:56Z</time>
      </trkpt>
      <trkpt lat="45.82187" lon="4.63239">
        <ele>379.377441</ele>
        <time>2009-10-11T09:42:12Z</time>
      </trkpt>
      <trkpt lat="45.82179" lon="4.63224">
        <ele>379.377441</ele>
        <time>2009-10-11T09:42:16Z</time>
      </trkpt>
      <trkpt lat="45.82194" lon="4.63181">
        <ele>379.377441</ele>
        <time>2009-10-11T09:42:45Z</time>
      </trkpt>
      <trkpt lat="45.82202" lon="4.63134">
        <ele>379.858032</ele>
        <time>2009-10-11T09:42:56Z</time>
      </trkpt>
      <trkpt lat="45.82239" lon="4.62891">
        <ele>385.625977</ele>
        <time>2009-10-11T09:43:40Z</time>
      </trkpt>
      <trkpt lat="45.82245" lon="4.62833">
        <ele>384.184082</ele>
        <time>2009-10-11T09:43:50Z</time>
      </trkpt>
      <trkpt lat="45.82262" lon="4.6267">
        <ele>375.532104</ele>
        <time>2009-10-11T09:44:09Z</time>
      </trkpt>
      <trkpt lat="45.82243" lon="4.62593">
        <ele>372.648193</ele>
        <time>2009-10-11T09:44:17Z</time>
      </trkpt>
      <trkpt lat="45.82206" lon="4.62565">
        <ele>369.283691</ele>
        <time>2009-10-11T09:44:22Z</time>
      </trkpt>
      <trkpt lat="45.82206" lon="4.62524">
        <ele>364.957642</ele>
        <time>2009-10-11T09:44:26Z</time>
      </trkpt>
      <trkpt lat="45.82204" lon="4.62419">
        <ele>358.708984</ele>
        <time>2009-10-11T09:44:34Z</time>
      </trkpt>
      <trkpt lat="45.82239" lon="4.62344">
        <ele>356.305786</ele>
        <time>2009-10-11T09:44:41Z</time>
      </trkpt>
      <trkpt lat="45.82247" lon="4.62291">
        <ele>356.305786</ele>
        <time>2009-10-11T09:44:46Z</time>
      </trkpt>
      <trkpt lat="45.82181" lon="4.62164">
        <ele>357.747803</ele>
        <time>2009-10-11T09:45:14Z</time>
      </trkpt>
      <trkpt lat="45.82157" lon="4.6213">
        <ele>355.344482</ele>
        <time>2009-10-11T09:45:21Z</time>
      </trkpt>
      <trkpt lat="45.82114" lon="4.62104">
        <ele>349.095825</ele>
        <time>2009-10-11T09:45:28Z</time>
      </trkpt>
      <trkpt lat="45.82073" lon="4.62106">
        <ele>340.924683</ele>
        <time>2009-10-11T09:45:33Z</time>
      </trkpt>
      <trkpt lat="45.81945" lon="4.62102">
        <ele>339.963379</ele>
        <time>2009-10-11T09:45:48Z</time>
      </trkpt>
      <trkpt lat="45.81992" lon="4.6205">
        <ele>338.040771</ele>
        <time>2009-10-11T09:45:58Z</time>
      </trkpt>
      <trkpt lat="45.82024" lon="4.62046">
        <ele>337.079468</ele>
        <time>2009-10-11T09:46:02Z</time>
      </trkpt>
      <trkpt lat="45.82033" lon="4.62039">
        <ele>336.598877</ele>
        <time>2009-10-11T09:46:05Z</time>
      </trkpt>
      <trkpt lat="45.82039" lon="4.62033">
        <ele>336.598877</ele>
        <time>2009-10-11T09:46:08Z</time>
      </trkpt>
      <trkpt lat="45.82095" lon="4.61967">
        <ele>311.604492</ele>
        <time>2009-10-11T09:46:28Z</time>
      </trkpt>
      <trkpt lat="45.82194" lon="4.6178">
        <ele>301.029907</ele>
        <time>2009-10-11T09:46:44Z</time>
      </trkpt>
      <trkpt lat="45.82191" lon="4.616">
        <ele>300.068726</ele>
        <time>2009-10-11T09:46:46Z</time>
      </trkpt>
      <trkpt lat="45.82226" lon="4.61552">
        <ele>300.068726</ele>
        <time>2009-10-11T09:46:55Z</time>
      </trkpt>
      <trkpt lat="45.8226" lon="4.61507">
        <ele>292.378174</ele>
        <time>2009-10-11T09:47:04Z</time>
      </trkpt>
      <trkpt lat="45.82322" lon="4.61454">
        <ele>283.726196</ele>
        <time>2009-10-11T09:47:14Z</time>
      </trkpt>
      <trkpt lat="45.82346" lon="4.61443">
        <ele>282.765015</ele>
        <time>2009-10-11T09:47:20Z</time>
      </trkpt>
      <trkpt lat="45.8234" lon="4.61432">
        <ele>283.726196</ele>
        <time>2009-10-11T09:47:35Z</time>
      </trkpt>
      <trkpt lat="45.82346" lon="4.61447">
        <ele>284.206909</ele>
        <time>2009-10-11T09:48:12Z</time>
      </trkpt>
      <trkpt lat="45.82348" lon="4.61447">
        <ele>283.245605</ele>
        <time>2009-10-11T09:49:26Z</time>
      </trkpt>
      <trkpt lat="45.82309" lon="4.61376">
        <ele>284.206909</ele>
        <time>2009-10-11T09:49:49Z</time>
      </trkpt>
      <trkpt lat="45.82206" lon="4.61297">
        <ele>288.052246</ele>
        <time>2009-10-11T09:50:22Z</time>
      </trkpt>
      <trkpt lat="45.82119" lon="4.61151">
        <ele>290.455566</ele>
        <time>2009-10-11T09:50:56Z</time>
      </trkpt>
      <trkpt lat="45.82076" lon="4.61093">
        <ele>285.168213</ele>
        <time>2009-10-11T09:51:10Z</time>
      </trkpt>
      <trkpt lat="45.82007" lon="4.61052">
        <ele>276.99707</ele>
        <time>2009-10-11T09:51:22Z</time>
      </trkpt>
      <trkpt lat="45.81994" lon="4.61016">
        <ele>273.151855</ele>
        <time>2009-10-11T09:51:28Z</time>
      </trkpt>
      <trkpt lat="45.81895" lon="4.60846">
        <ele>245.75415</ele>
        <time>2009-10-11T09:51:54Z</time>
      </trkpt>
      <trkpt lat="45.81739" lon="4.60696">
        <ele>242.389648</ele>
        <time>2009-10-11T09:52:33Z</time>
      </trkpt>
      <trkpt lat="45.8167" lon="4.60621">
        <ele>246.234863</ele>
        <time>2009-10-11T09:52:51Z</time>
      </trkpt>
      <trkpt lat="45.81606" lon="4.60593">
        <ele>247.196045</ele>
        <time>2009-10-11T09:56:29Z</time>
      </trkpt>
      <trkpt lat="45.81578" lon="4.60542">
        <ele>241.908936</ele>
        <time>2009-10-11T09:56:42Z</time>
      </trkpt>
      <trkpt lat="45.81443" lon="4.60462">
        <ele>244.792847</ele>
        <time>2009-10-11T09:57:12Z</time>
      </trkpt>
      <trkpt lat="45.81378" lon="4.60349">
        <ele>244.792847</ele>
        <time>2009-10-11T09:57:35Z</time>
      </trkpt>
      <trkpt lat="45.81247" lon="4.60179">
        <ele>246.234863</ele>
        <time>2009-10-11T09:58:15Z</time>
      </trkpt>
      <trkpt lat="45.81196" lon="4.60091">
        <ele>245.75415</ele>
        <time>2009-10-11T09:58:32Z</time>
      </trkpt>
      <trkpt lat="45.81116" lon="4.60022">
        <ele>249.118774</ele>
        <time>2009-10-11T09:59:05Z</time>
      </trkpt>
      <trkpt lat="45.81078" lon="4.60104">
        <ele>251.041382</ele>
        <time>2009-10-11T09:59:34Z</time>
      </trkpt>
      <trkpt lat="45.81061" lon="4.60121">
        <ele>252.483398</ele>
        <time>2009-10-11T09:59:45Z</time>
      </trkpt>
      <trkpt lat="45.81007" lon="4.60098">
        <ele>258.731934</ele>
        <time>2009-10-11T10:00:07Z</time>
      </trkpt>
      <trkpt lat="45.80943" lon="4.60093">
        <ele>262.577148</ele>
        <time>2009-10-11T10:00:40Z</time>
      </trkpt>
      <trkpt lat="45.80889" lon="4.60125">
        <ele>272.671143</ele>
        <time>2009-10-11T10:01:14Z</time>
      </trkpt>
      <trkpt lat="45.80844" lon="4.60136">
        <ele>286.129517</ele>
        <time>2009-10-11T10:01:51Z</time>
      </trkpt>
      <trkpt lat="45.80657" lon="4.60132">
        <ele>305.355957</ele>
        <time>2009-10-11T10:03:24Z</time>
      </trkpt>
      <trkpt lat="45.8037" lon="4.60252">
        <ele>318.333618</ele>
        <time>2009-10-11T10:12:24Z</time>
      </trkpt>
      <trkpt lat="45.80159" lon="4.60407">
        <ele>345.25061</ele>
        <time>2009-10-11T10:14:44Z</time>
      </trkpt>
      <trkpt lat="45.80056" lon="4.60445">
        <ele>362.07373</ele>
        <time>2009-10-11T10:15:50Z</time>
      </trkpt>
      <trkpt lat="45.79878" lon="4.60563">
        <ele>380.819458</ele>
        <time>2009-10-11T10:17:51Z</time>
      </trkpt>
      <trkpt lat="45.79634" lon="4.60591">
        <ele>390.432617</ele>
        <time>2009-10-11T10:19:52Z</time>
      </trkpt>
      <trkpt lat="45.79329" lon="4.60698">
        <ele>409.178345</ele>
        <time>2009-10-11T10:21:59Z</time>
      </trkpt>
      <trkpt lat="45.79239" lon="4.60743">
        <ele>400.526489</ele>
        <time>2009-10-11T10:22:19Z</time>
      </trkpt>
      <trkpt lat="45.79232" lon="4.60786">
        <ele>398.60376</ele>
        <time>2009-10-11T10:22:25Z</time>
      </trkpt>
      <trkpt lat="45.79215" lon="4.60831">
        <ele>394.277954</ele>
        <time>2009-10-11T10:22:30Z</time>
      </trkpt>
      <trkpt lat="45.79185" lon="4.60924">
        <ele>393.797241</ele>
        <time>2009-10-11T10:22:40Z</time>
      </trkpt>
      <trkpt lat="45.79168" lon="4.60941">
        <ele>391.393799</ele>
        <time>2009-10-11T10:22:44Z</time>
      </trkpt>
      <trkpt lat="45.7902" lon="4.60947">
        <ele>392.355347</ele>
        <time>2009-10-11T10:23:16Z</time>
      </trkpt>
      <trkpt lat="45.78988" lon="4.60971">
        <ele>391.874512</ele>
        <time>2009-10-11T10:23:24Z</time>
      </trkpt>
      <trkpt lat="45.78958" lon="4.61037">
        <ele>377.454834</ele>
        <time>2009-10-11T10:23:31Z</time>
      </trkpt>
      <trkpt lat="45.78932" lon="4.6107">
        <ele>375.051514</ele>
        <time>2009-10-11T10:23:34Z</time>
      </trkpt>
      <trkpt lat="45.78711" lon="4.61093">
        <ele>369.283691</ele>
        <time>2009-10-11T10:24:11Z</time>
      </trkpt>
      <trkpt lat="45.78621" lon="4.61119">
        <ele>363.035034</ele>
        <time>2009-10-11T10:24:25Z</time>
      </trkpt>
      <trkpt lat="45.7849" lon="4.61215">
        <ele>363.996338</ele>
        <time>2009-10-11T10:24:52Z</time>
      </trkpt>
      <trkpt lat="45.78372" lon="4.61209">
        <ele>356.786377</ele>
        <time>2009-10-11T10:25:09Z</time>
      </trkpt>
      <trkpt lat="45.78286" lon="4.61297">
        <ele>366.880249</ele>
        <time>2009-10-11T10:26:12Z</time>
      </trkpt>
      <trkpt lat="45.78239" lon="4.6122">
        <ele>374.090088</ele>
        <time>2009-10-11T10:26:50Z</time>
      </trkpt>
      <trkpt lat="45.78218" lon="4.61215">
        <ele>377.454834</ele>
        <time>2009-10-11T10:27:05Z</time>
      </trkpt>
      <trkpt lat="45.78072" lon="4.61269">
        <ele>399.565063</ele>
        <time>2009-10-11T10:28:36Z</time>
      </trkpt>
      <trkpt lat="45.78042" lon="4.61276">
        <ele>402.449097</ele>
        <time>2009-10-11T10:28:54Z</time>
      </trkpt>
      <trkpt lat="45.78029" lon="4.61276">
        <ele>405.813721</ele>
        <time>2009-10-11T10:29:02Z</time>
      </trkpt>
      <trkpt lat="45.77971" lon="4.61263">
        <ele>411.100952</ele>
        <time>2009-10-11T10:29:36Z</time>
      </trkpt>
      <trkpt lat="45.77855" lon="4.61288">
        <ele>426.962769</ele>
        <time>2009-10-11T10:30:58Z</time>
      </trkpt>
      <trkpt lat="45.77836" lon="4.61254">
        <ele>434.172607</ele>
        <time>2009-10-11T10:31:16Z</time>
      </trkpt>
      <trkpt lat="45.77833" lon="4.61252">
        <ele>433.211304</ele>
        <time>2009-10-11T10:37:43Z</time>
      </trkpt>
      <trkpt lat="45.77649" lon="4.61314">
        <ele>444.74707</ele>
        <time>2009-10-11T10:39:37Z</time>
      </trkpt>
      <trkpt lat="45.77451" lon="4.61314">
        <ele>460.128174</ele>
        <time>2009-10-11T10:41:03Z</time>
      </trkpt>
      <trkpt lat="45.77346" lon="4.61419">
        <ele>450.515015</ele>
        <time>2009-10-11T10:41:39Z</time>
      </trkpt>
      <trkpt lat="45.77359" lon="4.61467">
        <ele>448.592407</ele>
        <time>2009-10-11T10:41:44Z</time>
      </trkpt>
      <trkpt lat="45.77372" lon="4.61507">
        <ele>454.360229</ele>
        <time>2009-10-11T10:41:54Z</time>
      </trkpt>
      <trkpt lat="45.77469" lon="4.61743">
        <ele>474.067261</ele>
        <time>2009-10-11T10:43:13Z</time>
      </trkpt>
      <trkpt lat="45.77497" lon="4.619">
        <ele>490.890381</ele>
        <time>2009-10-11T10:44:19Z</time>
      </trkpt>
      <trkpt lat="45.77578" lon="4.62052">
        <ele>510.116699</ele>
        <time>2009-10-11T10:47:35Z</time>
      </trkpt>
      <trkpt lat="45.77554" lon="4.62108">
        <ele>510.59729</ele>
        <time>2009-10-11T10:47:57Z</time>
      </trkpt>
      <trkpt lat="45.77494" lon="4.6219">
        <ele>519.729858</ele>
        <time>2009-10-11T10:48:34Z</time>
      </trkpt>
      <trkpt lat="45.77464" lon="4.62267">
        <ele>526.939819</ele>
        <time>2009-10-11T10:49:09Z</time>
      </trkpt>
      <trkpt lat="45.77464" lon="4.62353">
        <ele>532.227051</ele>
        <time>2009-10-11T10:49:47Z</time>
      </trkpt>
      <trkpt lat="45.77677" lon="4.62509">
        <ele>536.072388</ele>
        <time>2009-10-11T10:50:47Z</time>
      </trkpt>
      <trkpt lat="45.77728" lon="4.62574">
        <ele>533.668945</ele>
        <time>2009-10-11T10:51:09Z</time>
      </trkpt>
      <trkpt lat="45.7776" lon="4.62638">
        <ele>530.304443</ele>
        <time>2009-10-11T10:51:23Z</time>
      </trkpt>
      <trkpt lat="45.77775" lon="4.62675">
        <ele>524.536499</ele>
        <time>2009-10-11T10:51:31Z</time>
      </trkpt>
      <trkpt lat="45.77726" lon="4.62741">
        <ele>527.42041</ele>
        <time>2009-10-11T10:51:53Z</time>
      </trkpt>
      <trkpt lat="45.77683" lon="4.62778">
        <ele>533.668945</ele>
        <time>2009-10-11T10:52:43Z</time>
      </trkpt>
      <trkpt lat="45.77662" lon="4.62831">
        <ele>539.917603</ele>
        <time>2009-10-11T10:53:25Z</time>
      </trkpt>
      <trkpt lat="45.77668" lon="4.62947">
        <ele>557.221436</ele>
        <time>2009-10-11T10:54:33Z</time>
      </trkpt>
      <trkpt lat="45.77737" lon="4.63069">
        <ele>560.585938</ele>
        <time>2009-10-11T10:54:43Z</time>
      </trkpt>
      <trkpt lat="45.77705" lon="4.63239">
        <ele>575.005859</ele>
        <time>2009-10-11T10:56:01Z</time>
      </trkpt>
      <trkpt lat="45.77604" lon="4.63338">
        <ele>579.812256</ele>
        <time>2009-10-11T10:56:44Z</time>
      </trkpt>
      <trkpt lat="45.77531" lon="4.63378">
        <ele>586.541504</ele>
        <time>2009-10-11T10:57:18Z</time>
      </trkpt>
      <trkpt lat="45.77503" lon="4.63439">
        <ele>588.464355</ele>
        <time>2009-10-11T10:57:39Z</time>
      </trkpt>
      <trkpt lat="45.77559" lon="4.6369">
        <ele>598.077393</ele>
        <time>2009-10-11T10:58:37Z</time>
      </trkpt>
      <trkpt lat="45.77561" lon="4.6375">
        <ele>604.326172</ele>
        <time>2009-10-11T10:59:06Z</time>
      </trkpt>
      <trkpt lat="45.7758" lon="4.6381">
        <ele>607.209961</ele>
        <time>2009-10-11T10:59:27Z</time>
      </trkpt>
      <trkpt lat="45.77585" lon="4.63842">
        <ele>607.209961</ele>
        <time>2009-10-11T10:59:46Z</time>
      </trkpt>
      <trkpt lat="45.77572" lon="4.63848">
        <ele>609.613281</ele>
        <time>2009-10-11T11:03:28Z</time>
      </trkpt>
      <trkpt lat="45.77685" lon="4.63917">
        <ele>613.458496</ele>
        <time>2009-10-11T11:08:34Z</time>
      </trkpt>
      <trkpt lat="45.77735" lon="4.63932">
        <ele>610.09375</ele>
        <time>2009-10-11T11:08:58Z</time>
      </trkpt>
      <trkpt lat="45.77814" lon="4.64026">
        <ele>610.09375</ele>
        <time>2009-10-11T11:09:28Z</time>
      </trkpt>
      <trkpt lat="45.77928" lon="4.64278">
        <ele>629.320068</ele>
        <time>2009-10-11T11:10:56Z</time>
      </trkpt>
      <trkpt lat="45.78012" lon="4.6443">
        <ele>647.104492</ele>
        <time>2009-10-11T11:12:27Z</time>
      </trkpt>
      <trkpt lat="45.78378" lon="4.64846">
        <ele>586.541504</ele>
        <time>2009-10-11T11:16:11Z</time>
      </trkpt>
      <trkpt lat="45.78391" lon="4.65063">
        <ele>578.851074</ele>
        <time>2009-10-11T11:16:36Z</time>
      </trkpt>
      <trkpt lat="45.78428" lon="4.65016">
        <ele>576.447754</ele>
        <time>2009-10-11T11:16:41Z</time>
      </trkpt>
      <trkpt lat="45.78445" lon="4.65056">
        <ele>574.044434</ele>
        <time>2009-10-11T11:16:47Z</time>
      </trkpt>
      <trkpt lat="45.78537" lon="4.65265">
        <ele>558.182861</ele>
        <time>2009-10-11T11:17:28Z</time>
      </trkpt>
      <trkpt lat="45.78666" lon="4.65067">
        <ele>556.740723</ele>
        <time>2009-10-11T11:17:34Z</time>
      </trkpt>
      <trkpt lat="45.78754" lon="4.65078">
        <ele>558.182861</ele>
        <time>2009-10-11T11:17:43Z</time>
      </trkpt>
      <trkpt lat="45.78758" lon="4.65069">
        <ele>550.011475</ele>
        <time>2009-10-11T11:17:49Z</time>
      </trkpt>
      <trkpt lat="45.78788" lon="4.65093">
        <ele>545.204834</ele>
        <time>2009-10-11T11:17:57Z</time>
      </trkpt>
      <trkpt lat="45.7878" lon="4.65106">
        <ele>542.801514</ele>
        <time>2009-10-11T11:18:01Z</time>
      </trkpt>
      <trkpt lat="45.78797" lon="4.65144">
        <ele>527.901001</ele>
        <time>2009-10-11T11:18:18Z</time>
      </trkpt>
      <trkpt lat="45.78835" lon="4.65209">
        <ele>518.287842</ele>
        <time>2009-10-11T11:18:34Z</time>
      </trkpt>
      <trkpt lat="45.78891" lon="4.65252">
        <ele>521.652588</ele>
        <time>2009-10-11T11:18:49Z</time>
      </trkpt>
      <trkpt lat="45.78896" lon="4.65237">
        <ele>558.182861</ele>
        <time>2009-10-11T11:19:12Z</time>
      </trkpt>
      <trkpt lat="45.789" lon="4.65207">
        <ele>560.585938</ele>
        <time>2009-10-11T11:22:22Z</time>
      </trkpt>
      <trkpt lat="45.78904" lon="4.65211">
        <ele>557.702148</ele>
        <time>2009-10-11T11:22:37Z</time>
      </trkpt>
      <trkpt lat="45.78971" lon="4.65363">
        <ele>546.646851</ele>
        <time>2009-10-11T11:25:02Z</time>
      </trkpt>
      <trkpt lat="45.78973" lon="4.65417">
        <ele>544.724243</ele>
        <time>2009-10-11T11:25:13Z</time>
      </trkpt>
      <trkpt lat="45.78979" lon="4.65468">
        <ele>537.994995</ele>
        <time>2009-10-11T11:25:25Z</time>
      </trkpt>
      <trkpt lat="45.78979" lon="4.65503">
        <ele>537.514282</ele>
        <time>2009-10-11T11:25:29Z</time>
      </trkpt>
      <trkpt lat="45.78994" lon="4.6558">
        <ele>532.707764</ele>
        <time>2009-10-11T11:25:37Z</time>
      </trkpt>
      <trkpt lat="45.79026" lon="4.65634">
        <ele>527.42041</ele>
        <time>2009-10-11T11:25:42Z</time>
      </trkpt>
      <trkpt lat="45.79099" lon="4.65719">
        <ele>526.939819</ele>
        <time>2009-10-11T11:26:21Z</time>
      </trkpt>
      <trkpt lat="45.79325" lon="4.65743">
        <ele>495.216187</ele>
        <time>2009-10-11T11:27:38Z</time>
      </trkpt>
      <trkpt lat="45.7949" lon="4.65743">
        <ele>478.393188</ele>
        <time>2009-10-11T11:28:08Z</time>
      </trkpt>
      <trkpt lat="45.79634" lon="4.6579">
        <ele>468.299316</ele>
        <time>2009-10-11T11:28:34Z</time>
      </trkpt>
      <trkpt lat="45.7976" lon="4.65758">
        <ele>468.299316</ele>
        <time>2009-10-11T11:28:59Z</time>
      </trkpt>
      <trkpt lat="45.79992" lon="4.65758">
        <ele>468.780029</ele>
        <time>2009-10-11T11:31:13Z</time>
      </trkpt>
      <trkpt lat="45.8035" lon="4.66003">
        <ele>435.614502</ele>
        <time>2009-10-11T11:32:23Z</time>
      </trkpt>
      <trkpt lat="45.80417" lon="4.66031">
        <ele>424.078735</ele>
        <time>2009-10-11T11:32:29Z</time>
      </trkpt>
      <trkpt lat="45.80468" lon="4.66052">
        <ele>422.156006</ele>
        <time>2009-10-11T11:32:34Z</time>
      </trkpt>
      <trkpt lat="45.80533" lon="4.66134">
        <ele>413.504272</ele>
        <time>2009-10-11T11:32:43Z</time>
      </trkpt>
      <trkpt lat="45.80589" lon="4.66258">
        <ele>409.659058</ele>
        <time>2009-10-11T11:33:01Z</time>
      </trkpt>
      <trkpt lat="45.80606" lon="4.66264">
        <ele>410.139648</ele>
        <time>2009-10-11T11:33:07Z</time>
      </trkpt>
      <trkpt lat="45.80666" lon="4.66475">
        <ele>400.526489</ele>
        <time>2009-10-11T11:33:43Z</time>
      </trkpt>
      <trkpt lat="45.80709" lon="4.66453">
        <ele>400.045898</ele>
        <time>2009-10-11T11:33:52Z</time>
      </trkpt>
      <trkpt lat="45.80765" lon="4.66451">
        <ele>394.277954</ele>
        <time>2009-10-11T11:34:00Z</time>
      </trkpt>
      <trkpt lat="45.80786" lon="4.66468">
        <ele>393.797241</ele>
        <time>2009-10-11T11:34:06Z</time>
      </trkpt>
      <trkpt lat="45.8078" lon="4.66576">
        <ele>393.797241</ele>
        <time>2009-10-11T11:34:21Z</time>
      </trkpt>
      <trkpt lat="45.8076" lon="4.66608">
        <ele>393.316528</ele>
        <time>2009-10-11T11:34:27Z</time>
      </trkpt>
      <trkpt lat="45.80734" lon="4.66661">
        <ele>394.758545</ele>
        <time>2009-10-11T11:34:37Z</time>
      </trkpt>
      <trkpt lat="45.8076" lon="4.66737">
        <ele>397.642456</ele>
        <time>2009-10-11T11:35:04Z</time>
      </trkpt>
      <trkpt lat="45.80734" lon="4.66644">
        <ele>394.758545</ele>
        <time>2009-10-11T11:35:37Z</time>
      </trkpt>
      <trkpt lat="45.8076" lon="4.66732">
        <ele>395.719849</ele>
        <time>2009-10-11T11:36:01Z</time>
      </trkpt>
      <trkpt lat="45.8082" lon="4.66702">
        <ele>390.913208</ele>
        <time>2009-10-11T11:36:19Z</time>
      </trkpt>
      <trkpt lat="45.80895" lon="4.66668">
        <ele>377.454834</ele>
        <time>2009-10-11T11:37:49Z</time>
      </trkpt>
      <trkpt lat="45.81039" lon="4.66653">
        <ele>369.764282</ele>
        <time>2009-10-11T11:38:06Z</time>
      </trkpt>
      <trkpt lat="45.81172" lon="4.66696">
        <ele>354.383179</ele>
        <time>2009-10-11T11:38:23Z</time>
      </trkpt>
      <trkpt lat="45.81318" lon="4.66741">
        <ele>359.67041</ele>
        <time>2009-10-11T11:38:40Z</time>
      </trkpt>
      <trkpt lat="45.8134" lon="4.66649">
        <ele>351.018433</ele>
        <time>2009-10-11T11:38:49Z</time>
      </trkpt>
      <trkpt lat="45.81531" lon="4.66687">
        <ele>342.84729</ele>
        <time>2009-10-11T11:39:20Z</time>
      </trkpt>
      <trkpt lat="45.81642" lon="4.66674">
        <ele>331.792114</ele>
        <time>2009-10-11T11:39:31Z</time>
      </trkpt>
      <trkpt lat="45.81694" lon="4.66674">
        <ele>335.156738</ele>
        <time>2009-10-11T11:39:39Z</time>
      </trkpt>
      <trkpt lat="45.81698" lon="4.66567">
        <ele>338.521484</ele>
        <time>2009-10-11T11:40:10Z</time>
      </trkpt>
      <trkpt lat="45.81709" lon="4.66524">
        <ele>338.521484</ele>
        <time>2009-10-11T11:40:24Z</time>
      </trkpt>
      <trkpt lat="45.81732" lon="4.66524">
        <ele>339.002075</ele>
        <time>2009-10-11T11:40:30Z</time>
      </trkpt>
      <trkpt lat="45.81975" lon="4.66711">
        <ele>325.543579</ele>
        <time>2009-10-11T11:41:11Z</time>
      </trkpt>
      <trkpt lat="45.82071" lon="4.66797">
        <ele>321.217773</ele>
        <time>2009-10-11T11:41:26Z</time>
      </trkpt>
      <trkpt lat="45.82123" lon="4.66861">
        <ele>319.775635</ele>
        <time>2009-10-11T11:41:35Z</time>
      </trkpt>
      <trkpt lat="45.82185" lon="4.66889">
        <ele>319.295044</ele>
        <time>2009-10-11T11:41:45Z</time>
      </trkpt>
      <trkpt lat="45.82355" lon="4.66865">
        <ele>324.101563</ele>
        <time>2009-10-11T11:42:14Z</time>
      </trkpt>
      <trkpt lat="45.82395" lon="4.66861">
        <ele>322.659668</ele>
        <time>2009-10-11T11:42:21Z</time>
      </trkpt>
      <trkpt lat="45.82479" lon="4.66831">
        <ele>328.427612</ele>
        <time>2009-10-11T11:42:38Z</time>
      </trkpt>
      <trkpt lat="45.82563" lon="4.66842">
        <ele>327.466187</ele>
        <time>2009-10-11T11:43:03Z</time>
      </trkpt>
      <trkpt lat="45.82644" lon="4.66822">
        <ele>326.504883</ele>
        <time>2009-10-11T11:43:19Z</time>
      </trkpt>
      <trkpt lat="45.82724" lon="4.6682">
        <ele>329.388916</ele>
        <time>2009-10-11T11:43:34Z</time>
      </trkpt>
      <trkpt lat="45.83022" lon="4.66844">
        <ele>334.676147</ele>
        <time>2009-10-11T11:44:32Z</time>
      </trkpt>
      <trkpt lat="45.83006" lon="4.67106">
        <ele>292.764984</ele>
        <time>2009-10-11T11:46:09Z</time>
      </trkpt>
      <trkpt lat="45.83012" lon="4.67322">
        <ele>280.230774</ele>
        <time>2009-10-11T11:46:43Z</time>
      </trkpt>
      <trkpt lat="45.83138" lon="4.67443">
        <ele>274.968079</ele>
        <time>2009-10-11T11:47:06Z</time>
      </trkpt>
      <trkpt lat="45.83243" lon="4.67605">
        <ele>267.736237</ele>
        <time>2009-10-11T11:47:21Z</time>
      </trkpt>
      <trkpt lat="45.83408" lon="4.67686">
        <ele>262.338623</ele>
        <time>2009-10-11T11:47:51Z</time>
      </trkpt>
      <trkpt lat="45.83488" lon="4.67828">
        <ele>265.985077</ele>
        <time>2009-10-11T11:47:55Z</time>
      </trkpt>
      <trkpt lat="45.83678" lon="4.68004">
        <ele>262.977905</ele>
        <time>2009-10-11T11:48:11Z</time>
      </trkpt>
      <trkpt lat="45.8383" lon="4.68255">
        <ele>255.248825</ele>
        <time>2009-10-11T11:48:33Z</time>
      </trkpt>
      <trkpt lat="45.83983" lon="4.68252">
        <ele>252.286697</ele>
        <time>2009-10-11T11:49:07Z</time>
      </trkpt>
      <trkpt lat="45.8416" lon="4.68279">
        <ele>247.018997</ele>
        <time>2009-10-11T11:49:53Z</time>
      </trkpt>
      <trkpt lat="45.84303" lon="4.68317">
        <ele>241.355743</ele>
      </trkpt>
      <trkpt lat="45.845" lon="4.68599">
        <ele>245.385132</ele>
        <time>2009-10-11T11:50:34Z</time>
      </trkpt>
      <trkpt lat="45.84692" lon="4.68791">
        <ele>223.551651</ele>
        <time>2009-10-11T11:50:47Z</time>
      </trkpt>
      <trkpt lat="45.84748" lon="4.68713">
        <ele>220.284958</ele>
        <time>2009-10-11T11:51:08Z</time>
      </trkpt>
      <trkpt lat="45.84884" lon="4.68661">
        <ele>219.005676</ele>
        <time>2009-10-11T11:51:29Z</time>
      </trkpt>
      <trkpt lat="45.85032" lon="4.6866">
        <ele>222.225525</ele>
        <time>2009-10-11T11:51:35Z</time>
      </trkpt>
      <trkpt lat="45.85303" lon="4.68205">
        <ele>219.447281</ele>
        <time>2009-10-11T11:52:17Z</time>
      </trkpt>
      <trkpt lat="45.85565" lon="4.67914">
        <ele>201.636505</ele>
        <time>2009-10-11T11:52:53Z</time>
      </trkpt>
      <trkpt lat="45.85629" lon="4.68006">
        <ele>202.499741</ele>
        <time>2009-10-11T11:52:57Z</time>
      </trkpt>
    </trkseg>
  </trk>
</gpx>